Denzil, Canada
Current Conditions -  °F | °C
As of 8:00 AM on Thursday 29 Jan 2015 (Local Time) from CYKY Reporting Station
Broken Clouds Broken Clouds  
Wind Chill: -3°   Ceiling: 9000
Heat Index:   Visibility: 15mi
Dew Point:   Wind: 7mph
Humidity: 85%   Direction: 100°E
Pressure: 30.4"   Gusts: NA
Location:  52.23°N, 109.65°W
Report Text: CYKY 291400Z 10006KT 15SM FEW040 BKN090 M13/M15 A3040 RMK SC2AC5 SLP345
Loading
Personal Weather Stations






























Interactive Weather Map New forecast layout! Learn more

10-Day Weather Forecast

Advertisements
Track Severe Weather on mobile